createdAt,value
2018-07-20T00:01:11.049Z,23.00
2018-07-20T00:03:39.625Z,22.80
2018-07-20T00:06:08.283Z,22.80
2018-07-20T00:08:36.895Z,22.70
2018-07-20T00:11:05.581Z,22.70
2018-07-20T00:13:34.179Z,22.70
2018-07-20T00:16:02.766Z,22.60
2018-07-20T00:18:31.435Z,22.60
2018-07-20T00:21:00.067Z,22.60
2018-07-20T00:23:28.681Z,22.50
2018-07-20T00:25:57.263Z,22.50
2018-07-20T00:28:25.863Z,22.40
2018-07-20T00:30:54.457Z,22.40
2018-07-20T00:33:23.027Z,22.50
2018-07-20T00:35:51.625Z,22.40
2018-07-20T00:38:20.319Z,22.40
2018-07-20T00:40:48.903Z,22.40
2018-07-20T00:43:17.485Z,22.50
2018-07-20T00:45:46.159Z,22.40
2018-07-20T00:48:14.751Z,22.40
2018-07-20T00:50:43.415Z,22.40
2018-07-20T00:53:12.035Z,22.40
2018-07-20T00:55:40.597Z,22.40
2018-07-20T00:58:09.203Z,22.30
2018-07-20T01:00:37.798Z,22.30
2018-07-20T01:03:06.597Z,22.30
2018-07-20T01:05:35.198Z,22.20
2018-07-20T01:08:03.917Z,22.30
2018-07-20T01:10:32.501Z,22.30
2018-07-20T01:13:01.119Z,22.40
2018-07-20T01:15:29.753Z,22.40
2018-07-20T01:17:58.366Z,22.60
2018-07-20T01:20:26.985Z,22.60
2018-07-20T01:22:55.593Z,22.40
2018-07-20T01:25:24.215Z,22.40
2018-07-20T01:27:52.857Z,22.30
2018-07-20T01:30:21.470Z,22.30
2018-07-20T01:32:50.082Z,22.40
2018-07-20T01:35:18.655Z,22.40
2018-07-20T01:37:47.390Z,22.40
2018-07-20T01:40:15.975Z,22.30
2018-07-20T01:42:44.580Z,22.10
2018-07-20T01:45:13.147Z,22.10
2018-07-20T01:47:41.691Z,22.10
2018-07-20T01:50:10.382Z,22.10
2018-07-20T01:52:39.089Z,22.10
2018-07-20T01:55:07.782Z,22.00
2018-07-20T01:57:36.343Z,21.90
2018-07-20T02:00:05.403Z,22.00
2018-07-20T02:02:33.999Z,22.00
2018-07-20T02:05:02.696Z,22.00
2018-07-20T02:07:31.304Z,21.90
2018-07-20T02:09:59.877Z,21.80
2018-07-20T02:12:28.513Z,21.80
2018-07-20T02:14:57.209Z,21.80
2018-07-20T02:17:25.801Z,21.80
2018-07-20T02:19:54.383Z,22.00
2018-07-20T02:22:22.957Z,22.00
2018-07-20T02:24:51.619Z,21.80
2018-07-20T02:27:20.217Z,21.70
2018-07-20T02:29:48.819Z,21.50
2018-07-20T02:32:17.393Z,21.60
2018-07-20T02:34:45.957Z,21.60
2018-07-20T02:37:14.684Z,21.60
2018-07-20T02:39:43.293Z,21.50
2018-07-20T02:42:11.915Z,21.60
2018-07-20T02:44:40.495Z,21.50
2018-07-20T02:47:09.033Z,21.40
2018-07-20T02:49:37.623Z,21.40
2018-07-20T02:52:06.417Z,21.30
2018-07-20T02:54:35.043Z,21.20
2018-07-20T02:57:03.652Z,21.00
2018-07-20T02:59:32.207Z,21.00
2018-07-20T03:02:00.777Z,21.00
2018-07-20T03:04:29.363Z,20.90
2018-07-20T03:06:57.989Z,21.00
2018-07-20T03:09:26.591Z,21.00
2018-07-20T03:11:55.134Z,21.00
2018-07-20T03:14:23.761Z,21.00
2018-07-20T03:16:52.303Z,20.90
2018-07-20T03:19:20.833Z,21.00
2018-07-20T03:21:49.452Z,21.10
2018-07-20T03:24:18.035Z,21.10
2018-07-20T03:26:46.593Z,21.00
2018-07-20T03:29:15.217Z,21.00
2018-07-20T03:31:43.779Z,21.10
2018-07-20T03:34:12.436Z,21.10
2018-07-20T03:36:41.092Z,20.90
2018-07-20T03:39:10.311Z,21.00
2018-07-20T03:41:39.436Z,20.90
2018-07-20T03:44:08.478Z,20.80
2018-07-20T03:46:37.383Z,20.70
2018-07-20T03:49:06.145Z,20.80
2018-07-20T03:51:34.655Z,20.90
2018-07-20T03:54:03.221Z,20.80
2018-07-20T03:56:31.755Z,20.70
2018-07-20T03:59:00.343Z,20.70
2018-07-20T04:01:28.967Z,20.70
2018-07-20T04:03:57.560Z,20.60
2018-07-20T04:06:26.111Z,20.70
2018-07-20T04:08:54.774Z,20.70
2018-07-20T04:11:23.325Z,20.70
2018-07-20T04:13:51.975Z,20.80
2018-07-20T04:16:20.577Z,20.80
2018-07-20T04:18:51.956Z,20.80
2018-07-20T04:21:20.552Z,20.80
2018-07-20T04:23:49.149Z,20.80
2018-07-20T04:26:17.741Z,20.80
2018-07-20T04:28:46.355Z,20.80
2018-07-20T04:31:14.939Z,20.90
2018-07-20T04:33:43.565Z,20.80
2018-07-20T04:36:12.111Z,20.80
2018-07-20T04:38:40.758Z,21.00
2018-07-20T04:41:09.349Z,21.10
2018-07-20T04:43:37.914Z,21.20
2018-07-20T04:46:06.503Z,21.20
2018-07-20T04:48:35.125Z,21.20
2018-07-20T04:51:03.771Z,21.30
2018-07-20T04:53:32.343Z,21.40
2018-07-20T04:56:00.963Z,21.30
2018-07-20T04:58:29.600Z,21.50
2018-07-20T05:00:58.283Z,21.50
2018-07-20T05:03:27.115Z,21.50
2018-07-20T05:05:55.837Z,21.60
2018-07-20T05:08:24.463Z,21.60
2018-07-20T05:10:53.181Z,21.70
2018-07-20T05:13:21.771Z,22.00
2018-07-20T05:15:50.361Z,22.20
2018-07-20T05:18:19.041Z,22.30
2018-07-20T05:20:47.638Z,22.40
2018-07-20T05:23:16.239Z,22.60
2018-07-20T05:25:44.933Z,23.20
2018-07-20T05:28:13.497Z,23.80
2018-07-20T05:30:42.071Z,24.20
2018-07-20T05:33:10.729Z,24.90
2018-07-20T05:35:39.299Z,25.70
2018-07-20T05:38:07.924Z,26.10
2018-07-20T05:40:36.581Z,26.30
2018-07-20T05:43:05.235Z,26.50
2018-07-20T05:45:33.896Z,26.70
2018-07-20T05:48:02.536Z,27.10
2018-07-20T05:50:31.775Z,27.60
2018-07-20T05:53:00.381Z,27.60
2018-07-20T05:55:28.950Z,27.90
2018-07-20T05:57:57.559Z,28.10
2018-07-20T06:00:26.171Z,28.40
2018-07-20T06:02:54.901Z,28.40
2018-07-20T06:05:23.563Z,28.10
2018-07-20T06:07:52.243Z,28.40
2018-07-20T06:10:20.887Z,29.00
2018-07-20T06:12:49.467Z,29.00
2018-07-20T06:15:18.103Z,29.20
2018-07-20T06:17:47.024Z,29.40
2018-07-20T06:20:15.681Z,30.00
2018-07-20T06:22:44.343Z,30.00
2018-07-20T06:25:13.006Z,29.90
2018-07-20T06:27:41.599Z,30.30
2018-07-20T06:30:10.201Z,30.40
2018-07-20T06:32:38.898Z,31.10
2018-07-20T06:35:07.596Z,31.00
2018-07-20T06:37:36.199Z,30.80
2018-07-20T06:40:05.233Z,30.70
2018-07-20T06:42:33.842Z,30.50
2018-07-20T06:45:02.425Z,31.40
2018-07-20T06:47:31.055Z,31.60
2018-07-20T06:49:59.686Z,31.70
2018-07-20T06:52:28.307Z,31.80
2018-07-20T06:54:56.907Z,32.30
2018-07-20T06:57:25.843Z,32.70
2018-07-20T06:59:54.505Z,32.80
2018-07-20T07:02:23.169Z,32.80
2018-07-20T07:04:51.706Z,32.90
2018-07-20T07:07:20.337Z,32.60
2018-07-20T07:09:48.981Z,33.00
2018-07-20T07:12:17.627Z,33.30
2018-07-20T07:14:46.283Z,32.80
2018-07-20T07:17:14.948Z,33.10
2018-07-20T07:19:43.559Z,32.90
2018-07-20T07:22:12.157Z,33.40
2018-07-20T07:24:40.749Z,33.60
2018-07-20T07:27:09.534Z,33.60
2018-07-20T07:29:38.223Z,33.10
2018-07-20T07:32:06.870Z,33.10
2018-07-20T07:34:35.475Z,33.30
2018-07-20T07:37:04.154Z,34.20
2018-07-20T07:39:32.761Z,33.60
2018-07-20T07:42:01.410Z,33.80
2018-07-20T07:44:29.976Z,33.00
2018-07-20T07:46:58.651Z,32.60
2018-07-20T07:49:27.384Z,32.80
2018-07-20T07:51:55.834Z,33.10
2018-07-20T07:54:24.473Z,34.20
2018-07-20T07:56:53.060Z,34.90
2018-07-20T07:59:21.786Z,35.10
2018-07-20T08:01:50.413Z,34.90
2018-07-20T08:04:19.038Z,34.70
2018-07-20T08:06:47.617Z,34.70
2018-07-20T08:09:16.243Z,35.20
2018-07-20T08:11:44.812Z,34.80
2018-07-20T08:14:13.828Z,35.10
2018-07-20T08:16:42.378Z,35.90
2018-07-20T08:19:11.008Z,36.30
2018-07-20T08:21:39.890Z,36.80
2018-07-20T08:24:08.657Z,36.80
2018-07-20T08:26:37.295Z,36.80
2018-07-20T08:29:05.985Z,36.50
2018-07-20T08:31:34.605Z,36.50
2018-07-20T08:34:03.316Z,36.50
2018-07-20T08:36:31.949Z,37.00
2018-07-20T08:39:00.629Z,37.50
2018-07-20T08:41:29.340Z,37.80
2018-07-20T08:43:58.027Z,38.00
2018-07-20T08:46:26.711Z,38.40
2018-07-20T08:48:55.552Z,38.60
2018-07-20T08:51:24.151Z,38.20
2018-07-20T08:53:52.751Z,37.30
2018-07-20T08:56:21.405Z,38.00
2018-07-20T08:58:49.986Z,38.60
2018-07-20T09:01:18.677Z,38.30
2018-07-20T09:03:47.356Z,38.10
2018-07-20T09:06:15.984Z,38.50
2018-07-20T09:08:44.578Z,39.30
2018-07-20T09:11:13.170Z,39.50
2018-07-20T09:13:41.838Z,37.30
2018-07-20T09:16:10.415Z,36.30
2018-07-20T09:18:39.032Z,36.40
2018-07-20T09:21:07.656Z,37.10
2018-07-20T09:23:36.482Z,38.00
2018-07-20T09:26:05.217Z,38.10
2018-07-20T09:28:33.980Z,38.00
2018-07-20T09:31:02.582Z,38.00
2018-07-20T09:33:31.262Z,38.00
2018-07-20T09:35:59.871Z,38.00
2018-07-20T09:38:28.534Z,37.70
2018-07-20T09:40:57.720Z,37.50
2018-07-20T09:43:26.362Z,37.80
2018-07-20T09:45:54.942Z,38.10
2018-07-20T09:48:23.592Z,38.10
2018-07-20T09:50:52.226Z,37.20
2018-07-20T09:53:20.841Z,37.20
2018-07-20T09:55:49.490Z,37.90
2018-07-20T09:58:18.104Z,38.30
2018-07-20T10:00:50.175Z,39.30
2018-07-20T10:03:19.682Z,40.10
2018-07-20T10:05:49.002Z,39.80
2018-07-20T10:08:18.739Z,39.70
2018-07-20T10:10:47.487Z,39.90
2018-07-20T10:13:16.589Z,39.80
2018-07-20T10:15:45.244Z,39.80
2018-07-20T10:18:14.070Z,39.40
2018-07-20T10:20:42.782Z,39.90
2018-07-20T10:23:11.496Z,40.10
2018-07-20T10:25:40.201Z,39.30
2018-07-20T10:28:08.699Z,39.40
2018-07-20T10:30:37.314Z,39.60
2018-07-20T10:33:05.860Z,40.00
2018-07-20T10:35:34.639Z,39.80
2018-07-20T10:38:03.301Z,39.90
2018-07-20T10:40:31.951Z,40.10
2018-07-20T10:43:00.526Z,40.60
2018-07-20T10:45:29.106Z,41.00
2018-07-20T10:47:57.701Z,40.80
2018-07-20T10:50:26.320Z,40.70
2018-07-20T10:52:54.941Z,40.20
2018-07-20T10:55:23.613Z,39.90
2018-07-20T10:57:52.640Z,40.00
2018-07-20T11:00:21.325Z,39.80
2018-07-20T11:02:49.914Z,39.40
2018-07-20T11:05:18.588Z,40.00
2018-07-20T11:07:47.183Z,40.30
2018-07-20T11:10:15.842Z,40.30
2018-07-20T11:12:44.459Z,39.80
2018-07-20T11:15:13.060Z,39.90
2018-07-20T11:17:41.721Z,40.20
2018-07-20T11:20:10.416Z,40.20
2018-07-20T11:22:39.289Z,40.40
2018-07-20T11:25:07.901Z,41.00
2018-07-20T11:27:36.570Z,41.50
2018-07-20T11:30:05.625Z,41.60
2018-07-20T11:32:34.900Z,41.40
2018-07-20T11:35:03.708Z,41.50
2018-07-20T11:37:32.386Z,41.30
2018-07-20T11:40:01.001Z,40.60
2018-07-20T11:42:29.607Z,40.80
2018-07-20T11:44:58.169Z,40.80
2018-07-20T11:47:26.843Z,39.90
2018-07-20T11:49:55.488Z,39.20
2018-07-20T11:52:24.089Z,39.00
2018-07-20T11:54:52.701Z,38.10
2018-07-20T11:57:21.349Z,38.40
2018-07-20T11:59:49.994Z,39.20
2018-07-20T12:02:18.644Z,40.00
2018-07-20T12:04:47.307Z,39.70
2018-07-20T12:07:16.423Z,38.50
2018-07-20T12:09:45.059Z,38.30
2018-07-20T12:12:13.759Z,38.60
2018-07-20T12:14:42.377Z,37.80
2018-07-20T12:17:11.304Z,37.50
2018-07-20T12:19:40.116Z,37.40
2018-07-20T12:22:08.762Z,37.30
2018-07-20T12:24:37.449Z,37.20
2018-07-20T12:27:06.339Z,36.30
2018-07-20T12:29:35.032Z,35.60
2018-07-20T12:32:03.712Z,35.10
2018-07-20T12:34:32.453Z,35.00
2018-07-20T12:37:01.106Z,34.80
2018-07-20T12:39:29.841Z,33.70
2018-07-20T12:41:58.527Z,33.10
2018-07-20T12:44:27.169Z,33.30
2018-07-20T12:46:55.770Z,33.40
2018-07-20T12:49:24.411Z,33.20
2018-07-20T12:51:53.034Z,32.90
2018-07-20T12:54:21.784Z,32.70
2018-07-20T12:56:50.423Z,32.40
2018-07-20T12:59:19.086Z,32.20
2018-07-20T13:01:47.730Z,32.00
2018-07-20T13:04:16.385Z,31.70
2018-07-20T13:06:45.117Z,31.40
2018-07-20T13:09:14.068Z,31.20
2018-07-20T13:11:43.283Z,30.90
2018-07-20T13:14:12.651Z,30.70
2018-07-20T13:16:41.803Z,30.60
2018-07-20T13:19:10.455Z,30.50
2018-07-20T13:21:39.171Z,30.30
2018-07-20T13:24:07.866Z,30.10
2018-07-20T13:26:36.549Z,30.00
2018-07-20T13:29:05.413Z,29.90
2018-07-20T13:31:34.088Z,29.80
2018-07-20T13:34:02.740Z,29.60
2018-07-20T13:36:31.353Z,29.60
2018-07-20T13:39:00.019Z,29.50
2018-07-20T13:41:28.670Z,29.50
2018-07-20T13:43:57.313Z,29.60
2018-07-20T13:46:26.005Z,29.60
2018-07-20T13:48:54.641Z,29.70
2018-07-20T13:51:23.301Z,29.80
2018-07-20T13:53:51.934Z,30.20
2018-07-20T13:56:20.586Z,30.60
2018-07-20T13:58:49.230Z,31.00
2018-07-20T14:01:17.885Z,31.30
2018-07-20T14:03:46.672Z,31.20
2018-07-20T14:06:15.361Z,31.30
2018-07-20T14:08:43.962Z,31.40
2018-07-20T14:11:12.633Z,31.40
2018-07-20T14:13:41.253Z,31.50
2018-07-20T14:16:09.939Z,31.50
2018-07-20T14:18:38.557Z,31.30
2018-07-20T14:21:07.417Z,31.20
2018-07-20T14:23:36.205Z,31.30
2018-07-20T14:26:04.827Z,31.30
2018-07-20T14:28:33.508Z,31.30
2018-07-20T14:31:02.129Z,31.00
2018-07-20T14:33:30.967Z,30.70
2018-07-20T14:35:59.589Z,31.00
2018-07-20T14:38:28.222Z,31.30
2018-07-20T14:40:56.955Z,31.40
2018-07-20T14:43:25.599Z,31.60
2018-07-20T14:45:54.252Z,31.50
2018-07-20T14:48:22.814Z,31.10
2018-07-20T14:50:51.472Z,31.00
2018-07-20T14:53:20.099Z,31.00
2018-07-20T14:55:48.772Z,31.10
2018-07-20T14:58:17.372Z,30.90
2018-07-20T15:00:46.323Z,30.90
2018-07-20T15:03:14.963Z,30.80
2018-07-20T15:05:43.568Z,30.50
2018-07-20T15:08:12.288Z,30.30
2018-07-20T15:10:40.873Z,30.20
2018-07-20T15:13:09.487Z,30.10
2018-07-20T15:15:38.093Z,30.20
2018-07-20T15:18:06.733Z,30.00
2018-07-20T15:20:35.298Z,29.70
2018-07-20T15:23:03.929Z,29.50
2018-07-20T15:25:32.527Z,29.20
2018-07-20T15:28:01.215Z,29.10
2018-07-20T15:30:29.823Z,29.00
2018-07-20T15:32:58.411Z,29.10
2018-07-20T15:35:27.025Z,29.20
2018-07-20T15:37:55.685Z,29.20
2018-07-20T15:40:24.360Z,29.20
2018-07-20T15:42:52.988Z,29.30
2018-07-20T15:45:21.583Z,29.30
2018-07-20T15:47:50.179Z,29.30
2018-07-20T15:50:18.928Z,29.30
2018-07-20T15:55:16.203Z,28.90
2018-07-20T15:57:44.876Z,28.60
2018-07-20T16:00:13.610Z,28.50
2018-07-20T16:02:42.216Z,28.40
2018-07-20T16:05:10.899Z,28.30
2018-07-20T16:07:39.513Z,28.20
2018-07-20T16:10:08.186Z,28.10
2018-07-20T16:12:36.830Z,28.00
2018-07-20T16:15:05.868Z,27.90
2018-07-20T16:17:34.485Z,27.90
2018-07-20T16:20:03.210Z,27.80
2018-07-20T16:22:31.867Z,27.80
2018-07-20T16:25:00.559Z,27.70
2018-07-20T16:27:29.160Z,27.70
2018-07-20T16:30:02.251Z,27.70
2018-07-20T16:32:30.865Z,27.70
2018-07-20T16:34:59.527Z,27.70
2018-07-20T16:37:28.177Z,27.60
2018-07-20T16:39:56.781Z,27.60
2018-07-20T16:42:25.356Z,27.50
2018-07-20T16:44:53.971Z,27.30
2018-07-20T16:47:22.658Z,27.20
2018-07-20T16:49:51.279Z,27.00
2018-07-20T16:52:19.923Z,26.80
2018-07-20T16:54:48.568Z,26.70
2018-07-20T16:57:17.181Z,26.60
2018-07-20T16:59:45.863Z,26.40
2018-07-20T17:02:14.500Z,26.20
2018-07-20T17:04:43.097Z,26.10
2018-07-20T17:07:11.688Z,26.00
2018-07-20T17:09:40.291Z,26.00
2018-07-20T17:12:09.152Z,26.00
2018-07-20T17:14:37.783Z,25.80
2018-07-20T17:17:06.427Z,25.70
2018-07-20T17:19:35.033Z,25.60
2018-07-20T17:22:03.658Z,25.60
2018-07-20T17:24:32.268Z,25.70
2018-07-20T17:27:00.887Z,25.60
2018-07-20T17:29:29.474Z,25.60
2018-07-20T17:31:58.072Z,25.50
2018-07-20T17:34:26.685Z,25.40
2018-07-20T17:36:55.330Z,25.30
2018-07-20T17:39:24.100Z,25.20
2018-07-20T17:41:52.680Z,25.10
2018-07-20T17:44:21.286Z,25.20
2018-07-20T17:46:50.009Z,25.10
2018-07-20T17:49:18.590Z,25.00
2018-07-20T17:51:47.269Z,25.00
2018-07-20T17:54:15.877Z,24.90
2018-07-20T17:56:44.518Z,24.60
2018-07-20T17:59:13.118Z,24.40
2018-07-20T18:01:41.750Z,24.30
2018-07-20T18:04:10.422Z,24.20
2018-07-20T18:06:39.108Z,24.10
2018-07-20T18:09:08.700Z,24.10
2018-07-20T18:11:37.295Z,24.10
2018-07-20T18:14:05.993Z,24.10
2018-07-20T18:16:34.678Z,24.10
2018-07-20T18:19:03.359Z,24.10
2018-07-20T18:21:32.058Z,24.10
2018-07-20T18:24:00.702Z,24.00
2018-07-20T18:26:29.414Z,23.90
2018-07-20T18:28:58.063Z,23.80
2018-07-20T18:31:26.661Z,23.80
2018-07-20T18:33:55.285Z,23.70
2018-07-20T18:36:23.844Z,23.70
2018-07-20T18:38:52.449Z,23.60
2018-07-20T18:41:21.076Z,23.50
2018-07-20T18:43:49.724Z,23.50
2018-07-20T18:46:18.354Z,23.40
2018-07-20T18:48:47.005Z,23.30
2018-07-20T18:51:15.577Z,23.20
2018-07-20T18:53:44.312Z,23.20
2018-07-20T18:56:12.943Z,23.20
2018-07-20T18:58:41.581Z,23.20
2018-07-20T19:01:10.251Z,23.20
2018-07-20T19:03:38.849Z,23.10
2018-07-20T19:06:07.532Z,23.00
2018-07-20T19:08:36.181Z,23.10
2018-07-20T19:11:04.896Z,23.00
2018-07-20T19:13:33.531Z,23.10
2018-07-20T19:16:02.231Z,23.00
2018-07-20T19:18:30.854Z,23.00
2018-07-20T19:20:59.431Z,22.90
2018-07-20T19:23:28.223Z,23.00
2018-07-20T19:25:56.825Z,22.90
2018-07-20T19:28:25.471Z,22.90
2018-07-20T19:30:54.129Z,22.80
2018-07-20T19:33:22.841Z,22.90
2018-07-20T19:35:51.561Z,22.90
2018-07-20T19:38:20.253Z,22.90
2018-07-20T19:40:49.150Z,22.80
2018-07-20T19:43:18.069Z,22.90
2018-07-20T19:45:46.878Z,22.90
2018-07-20T19:48:15.525Z,22.80
2018-07-20T19:50:44.435Z,22.80
2018-07-20T19:53:13.133Z,22.80
2018-07-20T19:55:41.803Z,22.80
2018-07-20T19:58:10.470Z,22.80
2018-07-20T20:00:39.123Z,22.80
2018-07-20T20:03:07.727Z,22.80
2018-07-20T20:05:36.332Z,22.80
2018-07-20T20:08:04.985Z,22.80
2018-07-20T20:10:33.666Z,22.70
2018-07-20T20:13:02.254Z,22.60
2018-07-20T20:15:30.871Z,22.50
2018-07-20T20:17:59.598Z,22.50
2018-07-20T20:20:28.260Z,22.50
2018-07-20T20:22:56.836Z,22.50
2018-07-20T20:25:25.425Z,22.40
2018-07-20T20:27:54.086Z,22.30
2018-07-20T20:30:22.760Z,22.40
2018-07-20T20:32:51.478Z,22.30
2018-07-20T20:35:20.084Z,22.30
2018-07-20T20:37:48.714Z,22.40
2018-07-20T20:40:17.331Z,22.50
2018-07-20T20:42:45.979Z,22.60
2018-07-20T20:45:14.681Z,22.60
2018-07-20T20:47:43.422Z,22.60
2018-07-20T20:50:12.043Z,22.50
2018-07-20T20:52:40.722Z,22.40
2018-07-20T20:55:09.340Z,22.30
2018-07-20T20:57:37.920Z,22.10
2018-07-20T21:00:07.149Z,21.90
2018-07-20T21:02:35.779Z,21.80
2018-07-20T21:05:04.648Z,21.70
2018-07-20T21:07:33.510Z,21.60
2018-07-20T21:10:02.359Z,21.40
2018-07-20T21:12:31.297Z,21.30
2018-07-20T21:14:59.896Z,21.20
2018-07-20T21:17:28.571Z,21.10
2018-07-20T21:19:57.348Z,21.00
2018-07-20T21:22:25.953Z,20.90
2018-07-20T21:24:54.618Z,20.80
2018-07-20T21:27:23.281Z,20.80
2018-07-20T21:29:52.012Z,20.80
2018-07-20T21:32:20.602Z,20.70
2018-07-20T21:34:49.239Z,20.60
2018-07-20T21:37:17.857Z,20.60
2018-07-20T21:39:46.553Z,20.50
2018-07-20T21:42:15.290Z,20.40
2018-07-20T21:44:44.103Z,20.50
2018-07-20T21:47:12.917Z,20.50
2018-07-20T21:49:41.532Z,20.50
2018-07-20T21:52:11.825Z,20.50
2018-07-20T21:54:40.576Z,20.70
2018-07-20T21:57:09.202Z,20.70
2018-07-20T21:59:37.802Z,20.70
2018-07-20T22:02:06.426Z,20.80
2018-07-20T22:04:34.998Z,20.80
2018-07-20T22:07:03.701Z,20.90
2018-07-20T22:09:32.358Z,21.00
2018-07-20T22:12:01.016Z,20.80
2018-07-20T22:14:29.668Z,20.80
2018-07-20T22:16:58.273Z,20.80
2018-07-20T22:19:26.830Z,20.70
2018-07-20T22:21:55.443Z,20.60
2018-07-20T22:24:24.069Z,20.40
2018-07-20T22:26:52.638Z,20.30
2018-07-20T22:29:21.216Z,20.30
2018-07-20T22:31:49.828Z,20.30
2018-07-20T22:34:25.034Z,20.30
2018-07-20T22:36:53.662Z,20.30
2018-07-20T22:39:22.275Z,20.30
2018-07-20T22:41:50.897Z,20.40
2018-07-20T22:44:19.494Z,20.50
2018-07-20T22:46:48.069Z,20.50
2018-07-20T22:49:16.674Z,20.70
2018-07-20T22:51:45.424Z,20.70
2018-07-20T22:54:14.007Z,20.70
2018-07-20T22:56:42.707Z,20.70
2018-07-20T22:59:11.295Z,20.80
2018-07-20T23:01:39.922Z,20.90
2018-07-20T23:04:08.534Z,20.90
2018-07-20T23:06:37.132Z,20.90
2018-07-20T23:09:07.846Z,20.70
2018-07-20T23:11:36.543Z,20.70
2018-07-20T23:14:05.208Z,20.70
2018-07-20T23:16:34.306Z,20.80
2018-07-20T23:19:03.165Z,20.70
2018-07-20T23:21:31.799Z,20.70
2018-07-20T23:24:00.474Z,20.70
2018-07-20T23:26:29.130Z,20.70
2018-07-20T23:28:58.023Z,20.70
2018-07-20T23:31:26.745Z,20.70
2018-07-20T23:33:55.354Z,20.70
2018-07-20T23:36:24.009Z,20.60
2018-07-20T23:38:52.638Z,20.70
2018-07-20T23:41:21.220Z,20.70
2018-07-20T23:43:49.799Z,20.70
2018-07-20T23:46:18.367Z,20.70
2018-07-20T23:48:46.914Z,20.70
2018-07-20T23:51:15.507Z,20.70
2018-07-20T23:53:44.234Z,20.60
2018-07-20T23:56:12.847Z,20.60
2018-07-20T23:58:41.428Z,20.60
